Madison, Mississippi
Current Conditions -  °F | °C
As of 3:54 PM on Wednesday 28 Jan 2015 (Local Time) from KJAN Reporting Station
Few Clouds Few Clouds  
Wind Chill: 68°   Ceiling: Unl
Heat Index: 68°   Visibility: 10mi
Dew Point: 34°   Wind: 7mph
Humidity: 28%   Direction: 160°SSE
Pressure: 30.18"   Gusts: NA
Location:  32.46°N, 90.12°W
Report Text: KJAN 282154Z 16006KT 10SM FEW250 20/01 A3018 RMK AO2 SLP219 T02000011
Loading
Personal Weather Stations






























Interactive Weather Map New forecast layout! Learn more

10-Day Weather Forecast

Advertisements
Track Severe Weather on mobile